createdAt,value
2018-04-11T00:01:45.740Z,3.90
2018-04-11T00:04:13.385Z,4.13
2018-04-11T00:06:40.984Z,4.17
2018-04-11T00:09:08.633Z,4.13
2018-04-11T00:11:36.269Z,5.20
2018-04-11T00:14:03.937Z,4.50
2018-04-11T00:16:31.526Z,4.20
2018-04-11T00:18:59.167Z,5.20
2018-04-11T00:21:26.777Z,4.13
2018-04-11T00:23:54.393Z,4.90
2018-04-11T00:26:21.981Z,4.80
2018-04-11T00:28:49.713Z,3.97
2018-04-11T00:31:17.297Z,5.33
2018-04-11T00:33:44.923Z,4.50
2018-04-11T00:36:12.509Z,4.50
2018-04-11T00:38:40.142Z,3.90
2018-04-11T00:41:07.752Z,5.20
2018-04-11T00:43:35.435Z,4.60
2018-04-11T00:46:03.056Z,4.73
2018-04-11T00:48:30.651Z,4.73
2018-04-11T00:50:58.285Z,5.83
2018-04-11T00:53:28.646Z,6.10
2018-04-11T00:55:56.289Z,5.90
2018-04-11T00:58:23.884Z,6.80
2018-04-11T01:00:51.496Z,6.40
2018-04-11T01:03:19.088Z,6.10
2018-04-11T01:05:46.729Z,8.07
2018-04-11T01:08:14.331Z,7.33
2018-04-11T01:10:42.116Z,7.43
2018-04-11T01:13:09.752Z,7.03
2018-04-11T01:15:37.421Z,7.73
2018-04-11T01:18:05.100Z,6.30
2018-04-11T01:20:32.887Z,7.40
2018-04-11T01:23:00.679Z,5.53
2018-04-11T01:25:28.380Z,5.20
2018-04-11T01:27:56.068Z,6.33
2018-04-11T01:30:31.478Z,5.50
2018-04-11T01:32:59.137Z,5.60
2018-04-11T01:35:26.812Z,5.70
2018-04-11T01:37:54.756Z,6.63
2018-04-11T01:40:22.510Z,6.07
2018-04-11T01:42:50.304Z,6.13
2018-04-11T01:45:17.988Z,6.50
2018-04-11T01:47:45.760Z,5.87
2018-04-11T01:50:13.348Z,6.70
2018-04-11T01:52:41.098Z,6.80
2018-04-11T01:55:08.699Z,7.37
2018-04-11T01:57:36.337Z,7.00
2018-04-11T02:00:03.925Z,9.63
2018-04-11T02:02:31.561Z,8.37
2018-04-11T02:04:59.379Z,9.63
2018-04-11T02:07:27.081Z,8.73
2018-04-11T02:09:54.719Z,10.40
2018-04-11T02:12:22.441Z,10.67
2018-04-11T02:14:50.280Z,9.77
2018-04-11T02:17:18.032Z,10.30
2018-04-11T02:19:45.714Z,9.73
2018-04-11T02:22:13.449Z,8.60
2018-04-11T02:24:41.146Z,8.90
2018-04-11T02:27:08.849Z,9.00
2018-04-11T02:29:36.566Z,7.23
2018-04-11T02:32:04.312Z,8.40
2018-04-11T02:34:31.934Z,7.80
2018-04-11T02:36:59.577Z,7.33
2018-04-11T02:39:27.295Z,7.50
2018-04-11T02:41:54.883Z,7.60
2018-04-11T02:44:22.670Z,8.07
2018-04-11T02:46:50.276Z,7.30
2018-04-11T02:49:18.180Z,7.50
2018-04-11T02:51:45.916Z,8.07
2018-04-11T02:54:13.653Z,9.70
2018-04-11T02:56:41.281Z,8.47
2018-04-11T02:59:08.945Z,8.07
2018-04-11T03:01:36.614Z,8.03
2018-04-11T03:04:04.428Z,7.30
2018-04-11T03:06:32.073Z,8.30
2018-04-11T03:08:59.737Z,8.13
2018-04-11T03:11:27.416Z,7.50
2018-04-11T03:13:55.069Z,7.50
2018-04-11T03:16:23.023Z,7.63
2018-04-11T03:18:50.867Z,6.90
2018-04-11T03:21:18.557Z,8.27
2018-04-11T03:23:46.213Z,8.87
2018-04-11T03:26:13.967Z,7.40
2018-04-11T03:28:41.651Z,7.63
2018-04-11T03:31:09.409Z,8.70
2018-04-11T03:33:37.026Z,9.27
2018-04-11T03:36:04.676Z,8.97
2018-04-11T03:38:32.358Z,8.07
2018-04-11T03:40:59.993Z,9.07
2018-04-11T03:43:27.791Z,8.33
2018-04-11T03:45:55.475Z,9.17
2018-04-11T03:48:23.089Z,8.90
2018-04-11T03:50:50.761Z,9.73
2018-04-11T03:53:18.427Z,8.40
2018-04-11T03:55:46.177Z,9.30
2018-04-11T03:58:13.792Z,9.60
2018-04-11T04:00:41.469Z,9.80
2018-04-11T04:03:09.122Z,7.87
2018-04-11T04:05:36.760Z,29.20
2018-04-11T04:08:04.442Z,16.30
2018-04-11T04:10:32.054Z,10.07
2018-04-11T04:12:59.726Z,9.60
2018-04-11T04:15:38.896Z,9.30
2018-04-11T04:18:18.230Z,9.67
2018-04-11T04:20:45.889Z,11.27
2018-04-11T04:23:13.548Z,8.90
2018-04-11T04:25:41.166Z,9.00
2018-04-11T04:28:08.825Z,8.67
2018-04-11T04:30:36.437Z,9.10
2018-04-11T04:33:05.832Z,8.83
2018-04-11T04:35:33.626Z,10.40
2018-04-11T04:38:01.299Z,40.90
2018-04-11T04:40:28.909Z,12.87
2018-04-11T04:42:56.606Z,11.10
2018-04-11T04:45:24.315Z,10.80
2018-04-11T04:47:52.008Z,11.70
2018-04-11T04:50:19.676Z,11.37
2018-04-11T04:52:47.406Z,10.90
2018-04-11T04:55:15.037Z,10.20
2018-04-11T04:57:42.677Z,11.33
2018-04-11T05:00:10.367Z,10.20
2018-04-11T05:02:38.034Z,10.83
2018-04-11T05:05:05.745Z,11.60
2018-04-11T05:07:33.362Z,12.23
2018-04-11T05:10:01.011Z,11.27
2018-04-11T05:12:28.668Z,11.27
2018-04-11T05:14:56.330Z,12.33
2018-04-11T05:17:24.100Z,13.00
2018-04-11T05:19:51.750Z,14.00
2018-04-11T05:22:19.364Z,13.90
2018-04-11T05:24:47.446Z,12.05
2018-04-11T05:27:15.636Z,11.37
2018-04-11T05:29:43.712Z,13.50
2018-04-11T05:32:11.868Z,13.23
2018-04-11T05:34:40.861Z,12.77
2018-04-11T05:37:09.006Z,11.70
2018-04-11T05:39:37.502Z,12.63
2018-04-11T05:42:06.305Z,12.33
2018-04-11T05:44:34.697Z,12.70
2018-04-11T05:52:45.947Z,10.90
2018-04-11T05:55:18.996Z,9.10
2018-04-11T06:02:21.969Z,8.97
2018-04-11T06:04:56.753Z,8.10
2018-04-11T06:07:25.490Z,7.93
2018-04-11T06:09:53.186Z,6.90
2018-04-11T06:12:20.880Z,7.20
2018-04-11T06:14:48.535Z,6.17
2018-04-11T06:17:16.225Z,6.00
2018-04-11T06:19:43.857Z,7.07
2018-04-11T06:22:11.565Z,8.20
2018-04-11T06:24:39.194Z,9.13
2018-04-11T06:27:06.896Z,7.80
2018-04-11T06:29:34.535Z,6.50
2018-04-11T06:32:02.229Z,6.80
2018-04-11T06:34:29.855Z,6.53
2018-04-11T06:36:57.506Z,7.13
2018-04-11T06:39:25.154Z,7.30
2018-04-11T06:41:52.837Z,5.43
2018-04-11T06:44:20.452Z,6.30
2018-04-11T06:46:48.101Z,6.53
2018-04-11T06:49:15.773Z,7.27
2018-04-11T06:51:43.381Z,6.23
2018-04-11T06:54:11.051Z,5.97
2018-04-11T06:56:38.690Z,6.60
2018-04-11T06:59:06.346Z,5.63
2018-04-11T07:01:33.940Z,6.30
2018-04-11T07:04:01.600Z,7.17
2018-04-11T07:06:29.203Z,6.83
2018-04-11T07:08:56.862Z,8.17
2018-04-11T07:11:24.497Z,8.23
2018-04-11T07:13:52.163Z,9.97
2018-04-11T07:16:19.794Z,8.70
2018-04-11T07:18:47.607Z,9.93
2018-04-11T07:21:15.227Z,8.50
2018-04-11T07:23:42.881Z,8.93
2018-04-11T07:26:10.478Z,8.43
2018-04-11T07:28:38.077Z,7.73
2018-04-11T07:31:05.729Z,9.00
2018-04-11T07:33:33.309Z,8.17
2018-04-11T07:36:01.051Z,9.00
2018-04-11T07:38:28.717Z,6.83
2018-04-11T07:40:56.344Z,5.53
2018-04-11T07:43:23.954Z,6.43
2018-04-11T07:45:51.744Z,6.90
2018-04-11T07:48:19.368Z,7.73
2018-04-11T07:50:47.069Z,7.63
2018-04-11T07:53:14.746Z,7.83
2018-04-11T07:55:42.392Z,6.90
2018-04-11T07:58:09.992Z,6.60
2018-04-11T08:00:37.651Z,6.53
2018-04-11T08:03:05.472Z,6.73
2018-04-11T08:05:33.123Z,6.47
2018-04-11T08:08:00.800Z,7.00
2018-04-11T08:10:28.413Z,6.73
2018-04-11T08:12:56.075Z,6.57
2018-04-11T08:15:23.703Z,7.17
2018-04-11T08:17:51.341Z,6.40
2018-04-11T08:20:18.957Z,7.57
2018-04-11T08:22:46.642Z,7.03
2018-04-11T08:25:14.268Z,7.60
2018-04-11T08:27:41.993Z,8.73
2018-04-11T08:30:09.730Z,8.70
2018-04-11T08:32:37.648Z,7.80
2018-04-11T08:35:05.313Z,6.70
2018-04-11T08:37:33.051Z,6.70
2018-04-11T08:40:00.711Z,7.20
2018-04-11T08:42:28.356Z,6.67
2018-04-11T08:44:55.985Z,6.80
2018-04-11T08:47:23.718Z,8.00
2018-04-11T08:49:51.294Z,8.40
2018-04-11T08:52:18.916Z,6.80
2018-04-11T08:54:46.581Z,7.70
2018-04-11T08:57:14.211Z,8.70
2018-04-11T08:59:41.941Z,8.17
2018-04-11T09:02:09.558Z,8.20
2018-04-11T09:04:37.240Z,8.10
2018-04-11T09:07:04.861Z,6.90
2018-04-11T09:09:32.525Z,8.43
2018-04-11T09:12:00.222Z,7.27
2018-04-11T09:14:27.928Z,7.90
2018-04-11T09:16:55.547Z,6.77
2018-04-11T09:19:23.391Z,8.03
2018-04-11T09:21:51.052Z,6.97
2018-04-11T09:24:18.725Z,6.40
2018-04-11T09:26:46.369Z,6.73
2018-04-11T09:29:14.092Z,7.87
2018-04-11T09:31:41.879Z,6.73
2018-04-11T09:34:09.542Z,7.80
2018-04-11T09:36:37.252Z,8.40
2018-04-11T09:39:05.500Z,9.33
2018-04-11T09:41:33.192Z,9.00
2018-04-11T09:44:00.811Z,10.20
2018-04-11T09:46:28.514Z,9.90
2018-04-11T09:48:56.160Z,10.50
2018-04-11T09:51:23.885Z,11.20
2018-04-11T09:53:51.488Z,11.77
2018-04-11T09:56:19.160Z,12.53
2018-04-11T09:58:46.774Z,13.57
2018-04-11T10:01:18.263Z,14.83
2018-04-11T10:03:45.873Z,13.57
2018-04-11T10:06:13.514Z,13.20
2018-04-11T10:08:41.129Z,14.40
2018-04-11T10:11:09.123Z,15.47
2018-04-11T10:13:36.762Z,14.67
2018-04-11T10:16:04.417Z,14.13
2018-04-11T10:18:32.188Z,13.90
2018-04-11T10:20:59.901Z,14.00
2018-04-11T10:23:27.524Z,13.90
2018-04-11T10:25:55.404Z,13.30
2018-04-11T10:28:23.012Z,13.50
2018-04-11T10:30:50.730Z,14.10
2018-04-11T10:33:18.565Z,14.00
2018-04-11T10:35:46.178Z,12.73
2018-04-11T10:38:13.825Z,14.10
2018-04-11T10:40:41.430Z,12.40
2018-04-11T10:43:09.133Z,12.27
2018-04-11T10:45:36.768Z,11.70
2018-04-11T10:48:04.446Z,11.87
2018-04-11T10:50:32.090Z,11.20
2018-04-11T10:52:59.860Z,13.20
2018-04-11T10:55:27.464Z,11.93
2018-04-11T10:57:55.133Z,11.60
2018-04-11T11:00:22.766Z,11.57
2018-04-11T11:02:50.431Z,10.37
2018-04-11T11:05:18.054Z,10.70
2018-04-11T11:07:45.732Z,11.37
2018-04-11T11:10:13.332Z,12.97
2018-04-11T11:12:40.999Z,12.07
2018-04-11T11:15:08.652Z,11.17
2018-04-11T11:17:36.324Z,10.77
2018-04-11T11:20:04.011Z,11.57
2018-04-11T11:22:31.666Z,15.53
2018-04-11T11:24:59.354Z,11.67
2018-04-11T11:27:26.980Z,12.73
2018-04-11T11:29:54.646Z,10.27
2018-04-11T11:32:22.294Z,12.67
2018-04-11T11:34:49.945Z,13.57
2018-04-11T11:37:17.667Z,12.40
2018-04-11T11:39:45.384Z,12.17
2018-04-11T11:42:13.046Z,13.40
2018-04-11T11:44:40.774Z,13.27
2018-04-11T11:47:08.411Z,14.93
2018-04-11T11:49:36.222Z,15.23
2018-04-11T11:52:03.923Z,13.00
2018-04-11T11:54:31.714Z,13.30
2018-04-11T11:56:59.359Z,13.37
2018-04-11T11:59:27.043Z,14.00
2018-04-11T12:01:54.673Z,14.10
2018-04-11T12:04:22.444Z,12.40
2018-04-11T12:06:50.115Z,12.97
2018-04-11T12:09:17.828Z,12.37
2018-04-11T12:11:45.486Z,13.30
2018-04-11T12:14:13.194Z,13.77
2018-04-11T12:16:40.825Z,13.23
2018-04-11T12:19:08.535Z,12.53
2018-04-11T12:21:36.179Z,13.90
2018-04-11T12:24:03.974Z,14.70
2018-04-11T12:26:31.673Z,12.77
2018-04-11T12:28:59.315Z,12.77
2018-04-11T12:31:26.981Z,13.10
2018-04-11T12:33:54.738Z,12.40
2018-04-11T12:36:22.432Z,14.80
2018-04-11T12:38:50.069Z,14.00
2018-04-11T12:41:17.758Z,13.87
2018-04-11T12:43:45.418Z,14.10
2018-04-11T12:46:13.069Z,15.23
2018-04-11T12:48:40.724Z,15.57
2018-04-11T12:51:09.011Z,14.80
2018-04-11T12:53:36.663Z,14.20
2018-04-11T12:56:04.333Z,13.90
2018-04-11T12:58:32.060Z,14.00
2018-04-11T13:00:59.997Z,14.10
2018-04-11T13:03:27.392Z,15.37
2018-04-11T13:05:55.076Z,15.77
2018-04-11T13:08:22.747Z,14.37
2018-04-11T13:10:50.352Z,15.00
2018-04-11T13:13:17.993Z,14.90
2018-04-11T13:15:45.630Z,14.63
2018-04-11T13:18:13.377Z,13.27
2018-04-11T13:20:41.056Z,24.50
2018-04-11T13:23:08.695Z,15.90
2018-04-11T13:25:36.489Z,15.40
2018-04-11T13:28:04.081Z,15.03
2018-04-11T13:30:31.755Z,15.97
2018-04-11T13:32:59.411Z,16.47
2018-04-11T13:35:27.050Z,17.97
2018-04-11T13:37:54.711Z,15.97
2018-04-11T13:40:22.339Z,19.03
2018-04-11T13:42:50.134Z,18.37
2018-04-11T13:45:17.760Z,16.67
2018-04-11T13:47:45.403Z,17.40
2018-04-11T13:50:13.005Z,17.87
2018-04-11T13:52:40.658Z,17.90
2018-04-11T13:55:08.315Z,17.27
2018-04-11T13:57:35.997Z,20.60
2018-04-11T14:00:03.669Z,16.87
2018-04-11T14:02:31.325Z,20.00
2018-04-11T14:04:58.966Z,24.30
2018-04-11T14:07:26.603Z,20.70
2018-04-11T14:09:54.258Z,20.03
2018-04-11T14:12:21.904Z,19.53
2018-04-11T14:14:49.576Z,23.27
2018-04-11T14:17:17.237Z,22.30
2018-04-11T14:19:44.911Z,23.37
2018-04-11T14:22:12.520Z,24.27
2018-04-11T14:24:40.153Z,23.30
2018-04-11T14:27:07.869Z,21.30
2018-04-11T14:29:35.533Z,21.10
2018-04-11T14:32:03.151Z,18.70
2018-04-11T14:34:31.017Z,18.57
2018-04-11T14:36:58.712Z,19.60
2018-04-11T14:39:26.423Z,19.17
2018-04-11T14:41:54.047Z,19.30
2018-04-11T14:44:21.686Z,19.87
2018-04-11T14:46:49.344Z,17.73
2018-04-11T14:49:16.945Z,20.80
2018-04-11T14:51:44.592Z,17.27
2018-04-11T14:54:12.238Z,16.60
2018-04-11T14:56:39.934Z,16.97
2018-04-11T14:59:07.563Z,15.07
2018-04-11T15:01:35.237Z,14.00
2018-04-11T15:04:02.857Z,13.60
2018-04-11T15:06:30.517Z,14.20
2018-04-11T15:08:58.281Z,12.30
2018-04-11T15:11:25.937Z,11.90
2018-04-11T15:13:53.552Z,12.43
2018-04-11T15:16:21.209Z,13.47
2018-04-11T15:18:48.813Z,11.30
2018-04-11T15:21:16.579Z,11.30
2018-04-11T15:23:44.228Z,12.50
2018-04-11T15:26:11.822Z,13.73
2018-04-11T15:28:39.469Z,13.60
2018-04-11T15:31:07.085Z,13.93
2018-04-11T15:33:34.735Z,13.23
2018-04-11T15:36:02.336Z,12.93
2018-04-11T15:38:29.976Z,12.10
2018-04-11T15:40:57.634Z,12.57
2018-04-11T15:43:25.333Z,12.17
2018-04-11T15:45:52.945Z,10.70
2018-04-11T15:48:20.574Z,9.30
2018-04-11T15:50:48.217Z,9.80
2018-04-11T15:53:15.970Z,14.50
2018-04-11T15:55:43.682Z,8.73
2018-04-11T15:58:11.515Z,9.77
2018-04-11T16:00:39.100Z,8.63
2018-04-11T16:03:06.738Z,8.83
2018-04-11T16:05:34.325Z,7.20
2018-04-11T16:08:01.989Z,8.30
2018-04-11T16:10:29.705Z,8.57
2018-04-11T16:12:57.644Z,10.47
2018-04-11T16:15:25.309Z,10.27
2018-04-11T16:17:52.921Z,9.93
2018-04-11T16:20:20.560Z,8.57
2018-04-11T16:22:48.189Z,9.40
2018-04-11T16:25:15.827Z,9.33
2018-04-11T16:27:43.456Z,8.10
2018-04-11T16:30:11.127Z,7.53
2018-04-11T16:32:38.937Z,7.03
2018-04-11T16:35:06.598Z,5.83
2018-04-11T16:37:34.256Z,5.73
2018-04-11T16:40:01.934Z,4.57
2018-04-11T16:42:29.569Z,3.80
2018-04-11T16:44:57.259Z,4.37
2018-04-11T16:47:24.955Z,3.90
2018-04-11T16:49:52.586Z,4.20
2018-04-11T16:52:20.255Z,3.17
2018-04-11T16:54:47.866Z,2.50
2018-04-11T16:57:15.509Z,3.53
2018-04-11T16:59:43.210Z,3.13
2018-04-11T17:02:10.925Z,3.33
2018-04-11T17:04:38.547Z,3.70
2018-04-11T17:07:06.237Z,4.67
2018-04-11T17:09:34.087Z,3.67
2018-04-11T17:12:01.734Z,3.00
2018-04-11T17:14:29.394Z,2.83
2018-04-11T17:16:57.136Z,3.20
2018-04-11T17:19:24.803Z,3.40
2018-04-11T17:22:03.941Z,2.60
2018-04-11T17:24:43.193Z,2.73
2018-04-11T17:27:22.556Z,2.93
2018-04-11T17:30:01.803Z,3.43
2018-04-11T17:32:29.440Z,2.70
2018-04-11T17:34:57.098Z,2.63
2018-04-11T17:37:24.841Z,2.90
2018-04-11T17:39:52.510Z,3.33
2018-04-11T17:42:20.177Z,2.93
2018-04-11T17:44:47.784Z,2.93
2018-04-11T17:47:15.425Z,2.60
2018-04-11T17:49:43.026Z,3.33
2018-04-11T17:52:10.841Z,3.63
2018-04-11T17:54:38.453Z,3.33
2018-04-11T17:57:06.103Z,3.20
2018-04-11T17:59:33.785Z,3.30
2018-04-11T18:02:01.509Z,3.70
2018-04-11T18:04:29.147Z,3.73
2018-04-11T18:06:56.786Z,3.60
2018-04-11T18:09:24.461Z,3.90
2018-04-11T18:11:52.096Z,3.70
2018-04-11T18:14:19.837Z,3.90
2018-04-11T18:16:47.503Z,3.97
2018-04-11T18:19:15.206Z,4.30
2018-04-11T18:21:42.879Z,3.80
2018-04-11T18:24:10.522Z,4.83
2018-04-11T18:26:38.126Z,4.90
2018-04-11T18:29:05.770Z,4.37
2018-04-11T18:31:33.381Z,4.10
2018-04-11T18:34:01.080Z,5.03
2018-04-11T18:36:28.689Z,5.37
2018-04-11T18:38:56.398Z,4.80
2018-04-11T18:41:24.071Z,4.30
2018-04-11T18:43:51.721Z,4.20
2018-04-11T18:46:19.363Z,3.60
2018-04-11T18:48:46.954Z,4.70
2018-04-11T18:51:14.593Z,5.10
2018-04-11T18:53:42.221Z,4.90
2018-04-11T18:56:10.710Z,67.73
2018-04-11T18:58:38.330Z,31.57
2018-04-11T19:01:06.029Z,9.00
2018-04-11T19:03:33.655Z,5.63
2018-04-11T19:06:01.302Z,5.07
2018-04-11T19:08:29.024Z,5.33
2018-04-11T19:10:56.647Z,5.03
2018-04-11T19:13:24.298Z,5.13
2018-04-11T19:15:51.896Z,6.13
2018-04-11T19:18:19.473Z,4.47
2018-04-11T19:20:47.104Z,3.97
2018-04-11T19:23:14.717Z,3.70
2018-04-11T19:25:42.659Z,4.67
2018-04-11T19:28:10.270Z,5.03
2018-04-11T19:30:37.914Z,4.40
2018-04-11T19:33:05.575Z,5.50
2018-04-11T19:35:33.215Z,5.87
2018-04-11T19:38:00.939Z,6.70
2018-04-11T19:40:28.572Z,5.93
2018-04-11T19:42:56.243Z,5.80
2018-04-11T19:45:23.849Z,6.60
2018-04-11T19:47:51.561Z,7.50
2018-04-11T19:50:19.182Z,7.00
2018-04-11T19:52:46.848Z,69.90
2018-04-11T19:55:14.501Z,100.60
2018-04-11T19:57:42.194Z,25.20
2018-04-11T20:00:09.838Z,12.60
2018-04-11T20:02:37.497Z,8.30
2018-04-11T20:05:05.125Z,7.20
2018-04-11T20:07:32.833Z,7.37
2018-04-11T20:10:00.443Z,6.33
2018-04-11T20:12:28.110Z,7.83
2018-04-11T20:14:55.742Z,7.77
2018-04-11T20:17:23.421Z,7.67
2018-04-11T20:19:51.069Z,7.63
2018-04-11T20:22:18.711Z,7.00
2018-04-11T20:24:46.427Z,7.00
2018-04-11T20:27:14.170Z,8.60
2018-04-11T20:29:41.941Z,11.90
2018-04-11T20:32:09.608Z,9.57
2018-04-11T20:34:37.307Z,8.93
2018-04-11T20:37:05.071Z,8.57
2018-04-11T20:39:32.740Z,8.20
2018-04-11T20:42:00.493Z,7.40
2018-04-11T20:44:28.240Z,8.23
2018-04-11T20:46:55.946Z,7.43
2018-04-11T20:49:23.588Z,8.70
2018-04-11T20:51:51.270Z,8.17
2018-04-11T20:54:19.021Z,9.53
2018-04-11T20:56:46.724Z,9.40
2018-04-11T20:59:14.694Z,9.80
2018-04-11T21:01:42.508Z,8.17
2018-04-11T21:04:10.117Z,7.60
2018-04-11T21:06:37.824Z,8.10
2018-04-11T21:09:05.518Z,8.23
2018-04-11T21:11:33.178Z,7.90
2018-04-11T21:14:00.785Z,7.53
2018-04-11T21:16:28.449Z,8.70
2018-04-11T21:18:56.113Z,8.00
2018-04-11T21:21:23.895Z,8.03
2018-04-11T21:23:51.547Z,8.83
2018-04-11T21:26:19.264Z,7.23
2018-04-11T21:28:46.968Z,7.60
2018-04-11T21:31:14.678Z,8.27
2018-04-11T21:33:42.322Z,8.40
2018-04-11T21:36:10.005Z,8.53
2018-04-11T21:38:37.609Z,8.60
2018-04-11T21:41:05.320Z,8.20
2018-04-11T21:43:32.969Z,9.23
2018-04-11T21:46:00.641Z,8.80
2018-04-11T21:48:28.292Z,8.60
2018-04-11T21:50:55.971Z,8.80
2018-04-11T21:53:23.601Z,9.10
2018-04-11T21:55:51.215Z,8.43
2018-04-11T21:58:18.869Z,7.93
2018-04-11T22:00:46.507Z,7.90
2018-04-11T22:03:14.190Z,8.27
2018-04-11T22:05:41.794Z,8.30
2018-04-11T22:08:09.435Z,9.30
2018-04-11T22:10:37.033Z,7.83
2018-04-11T22:13:04.695Z,7.50
2018-04-11T22:15:32.338Z,7.67
2018-04-11T22:18:00.070Z,7.50
2018-04-11T22:20:27.675Z,7.47
2018-04-11T22:22:55.333Z,8.00
2018-04-11T22:25:22.977Z,7.83
2018-04-11T22:27:50.622Z,8.57
2018-04-11T22:30:18.271Z,7.60
2018-04-11T22:32:45.965Z,6.73
2018-04-11T22:35:13.616Z,8.57
2018-04-11T22:37:41.265Z,7.53
2018-04-11T22:40:08.932Z,6.47
2018-04-11T22:42:36.585Z,7.17
2018-04-11T22:45:04.273Z,8.23
2018-04-11T22:47:31.971Z,6.43
2018-04-11T22:49:59.778Z,6.10
2018-04-11T22:52:27.413Z,6.90
2018-04-11T22:54:55.087Z,6.67
2018-04-11T22:57:22.710Z,6.37
2018-04-11T22:59:50.341Z,7.23
2018-04-11T23:02:17.966Z,7.50
2018-04-11T23:04:46.155Z,6.90
2018-04-11T23:07:13.973Z,7.23
2018-04-11T23:09:41.721Z,7.50
2018-04-11T23:12:17.312Z,5.80
2018-04-11T23:14:45.074Z,7.00
2018-04-11T23:17:13.163Z,7.40
2018-04-11T23:19:40.927Z,6.73
2018-04-11T23:22:08.854Z,5.80
2018-04-11T23:24:36.765Z,6.87
2018-04-11T23:27:04.549Z,6.77
2018-04-11T23:29:32.424Z,7.10
2018-04-11T23:32:00.205Z,7.03
2018-04-11T23:34:27.948Z,7.40
2018-04-11T23:36:55.786Z,6.27
2018-04-11T23:39:23.451Z,7.10
2018-04-11T23:41:51.203Z,7.33
2018-04-11T23:44:18.836Z,6.33
2018-04-11T23:46:46.924Z,6.90
2018-04-11T23:49:14.773Z,7.00
2018-04-11T23:51:42.512Z,7.00
2018-04-11T23:54:10.283Z,7.27
2018-04-11T23:56:38.023Z,7.70
2018-04-11T23:59:05.814Z,6.70
